Time;durP1;ratioP1;P1;durP2;ratioP2;P2;SDS_P1;SDS_P2;PMS_P1;PMS_P2;Temp;Humidity;BMP_temperature;BMP_pressure;BME280_temperature;BME280_humidity;BME280_pressure;Samples;Min_cycle;Max_cycle;Signal;HPM_P1;HPM_P2
2022/08/18 00:00:12;;;;;;;4.2;3.6;;;;;;;22;66.36035;934.8931;;;;
2022/08/18 00:02:35;;;;;;;4.4;3.6;;;;;;;22.03;65.69531;934.882;;;;
2022/08/18 00:05:03;;;;;;;5.1;3.5;;;;;;;21.79;66.42188;934.9492;;;;
2022/08/18 00:07:31;;;;;;;4.3;3.7;;;;;;;21.78;66.50293;934.9302;;;;
2022/08/18 00:09:57;;;;;;;4.1;3.3;;;;;;;21.79;66.65723;934.855;;;;
2022/08/18 00:12:23;;;;;;;4.7;3.4;;;;;;;21.83;66.67578;934.9808;;;;
2022/08/18 00:14:48;;;;;;;4.3;3.4;;;;;;;21.84;66.64063;935.0025;;;;
2022/08/18 00:17:13;;;;;;;4.3;3.4;;;;;;;21.7;67.44043;934.9906;;;;
2022/08/18 00:19:38;;;;;;;4.1;3.7;;;;;;;21.65;67.50195;934.9092;;;;
2022/08/18 00:24:41;;;;;;;4.3;3.6;;;;;;;21.48;68.55469;935.0003;;;;
2022/08/18 00:28:30;;;;;;;3.8;3.4;;;;;;;21.52;68.33789;935.0239;;;;
2022/08/18 00:30:40;;;;;;;3.9;3.5;;;;;;;21.42;68.83594;935.1603;;;;
2022/08/18 00:33:05;;;;;;;3.7;3.4;;;;;;;21.49;68.57813;935.1411;;;;
2022/08/18 00:35:33;;;;;;;7.1;3.6;;;;;;;21.48;68.89258;935.1544;;;;
2022/08/18 00:37:57;;;;;;;4.6;3.6;;;;;;;21.51;68.67578;935.1871;;;;
2022/08/18 00:40:23;;;;;;;4.3;3.6;;;;;;;21.5;68.77832;935.2761;;;;
2022/08/18 00:42:48;;;;;;;4;3.5;;;;;;;21.41;69.49023;935.2816;;;;
2022/08/18 00:45:13;;;;;;;4.8;3;;;;;;;21.44;69.5293;935.3035;;;;
2022/08/18 00:47:44;;;;;;;3.8;3.4;;;;;;;21.4;69.66602;935.2986;;;;
2022/08/18 00:50:15;;;;;;;4.7;3.9;;;;;;;21.16;70.89063;935.2623;;;;
2022/08/18 00:52:40;;;;;;;6.2;3.4;;;;;;;21.11;71.28027;935.2609;;;;
2022/08/18 00:55:06;;;;;;;4.5;3.8;;;;;;;21.18;71.36133;935.2673;;;;
2022/08/18 00:57:34;;;;;;;3.9;3.5;;;;;;;20.99;72.76953;935.2125;;;;
2022/08/18 01:00:02;;;;;;;3.5;3.2;;;;;;;21.03;72.92871;935.1933;;;;
2022/08/18 01:02:24;;;;;;;4.6;3.3;;;;;;;21.1;72.77734;935.2814;;;;
2022/08/18 01:04:54;;;;;;;3.8;3.4;;;;;;;21.15;72.74902;935.2433;;;;
2022/08/18 01:07:19;;;;;;;3.7;3.2;;;;;;;21.17;72.69434;935.2548;;;;
2022/08/18 01:09:44;;;;;;;6.3;3.5;;;;;;;20.85;74.40527;935.2773;;;;
2022/08/18 01:12:38;;;;;;;3.5;3.2;;;;;;;20.82;74.73047;935.1786;;;;
2022/08/18 01:15:09;;;;;;;3.8;3.5;;;;;;;20.72;75.19043;935.2004;;;;
2022/08/18 01:22:50;;;;;;;3.8;3.5;;;;;;;20.36;77.09277;935.1202;;;;
2022/08/18 01:27:41;;;;;;;3.8;3.4;;;;;;;20.5;76.63574;935.1333;;;;
2022/08/18 01:30:08;;;;;;;3.8;3.5;;;;;;;20.55;76.43457;935.1307;;;;
2022/08/18 01:32:31;;;;;;;4.2;3.7;;;;;;;20.63;76.14551;935.1261;;;;
2022/08/18 01:34:58;;;;;;;3.7;3.4;;;;;;;20.51;76.74414;935.0399;;;;
2022/08/18 01:37:23;;;;;;;3.6;3.3;;;;;;;20.53;76.61914;935.0449;;;;
2022/08/18 01:39:49;;;;;;;4.7;3.4;;;;;;;20.42;76.82227;935.0119;;;;
2022/08/18 01:42:15;;;;;;;3.8;3.4;;;;;;;20.31;77.375;935.0817;;;;
2022/08/18 01:44:40;;;;;;;3.7;3.4;;;;;;;20.29;77.4873;935.0524;;;;
2022/08/18 01:47:06;;;;;;;3.9;3.5;;;;;;;20.21;77.70801;935.0159;;;;
2022/08/18 01:49:31;;;;;;;4.1;3.6;;;;;;;20.18;77.73828;934.9973;;;;
2022/08/18 01:51:56;;;;;;;3.6;3.3;;;;;;;20.18;77.62207;935.02;;;;
2022/08/18 01:54:28;;;;;;;4;3.7;;;;;;;20.19;78.13672;934.9582;;;;
2022/08/18 01:56:51;;;;;;;4.3;3.8;;;;;;;20.17;78.31836;935.0567;;;;
2022/08/18 01:59:18;;;;;;;4.2;3.6;;;;;;;20.27;77.95313;934.9308;;;;
2022/08/18 02:01:44;;;;;;;4.2;3.8;;;;;;;20.12;78.42578;934.8976;;;;
2022/08/18 02:04:11;;;;;;;4;3.5;;;;;;;20.13;78.46387;934.9084;;;;
2022/08/18 02:06:36;;;;;;;4.3;3.9;;;;;;;20.08;78.51465;934.8228;;;;
2022/08/18 02:09:03;;;;;;;4.6;3.5;;;;;;;20.08;78.52637;934.7258;;;;
2022/08/18 02:11:28;;;;;;;3.9;3.5;;;;;;;20.06;78.31152;934.7064;;;;
2022/08/18 02:13:53;;;;;;;4.3;3.6;;;;;;;20.05;78.25098;934.7124;;;;
2022/08/18 02:16:18;;;;;;;4.3;3.7;;;;;;;20;78.00977;934.8589;;;;
2022/08/18 02:18:43;;;;;;;4.3;3.5;;;;;;;19.98;78.4248;934.8129;;;;
2022/08/18 02:21:53;;;;;;;4;3.4;;;;;;;19.99;78.33301;934.8086;;;;
2022/08/18 02:24:15;;;;;;;4.2;3.8;;;;;;;19.82;78.05957;934.7468;;;;
2022/08/18 02:26:42;;;;;;;5.4;3.7;;;;;;;19.77;78.23633;934.7773;;;;
2022/08/18 02:29:48;;;;;;;3.9;3.4;;;;;;;19.83;77.83984;934.6827;;;;
2022/08/18 02:32:16;;;;;;;4.5;4.1;;;;;;;19.79;77.88965;934.7371;;;;
2022/08/18 02:34:41;;;;;;;5.3;4.1;;;;;;;19.77;77.62988;934.728;;;;
2022/08/18 02:37:06;;;;;;;4.5;4.1;;;;;;;19.74;77.8125;934.7346;;;;
2022/08/18 02:39:31;;;;;;;4.4;4;;;;;;;19.73;77.90234;934.7422;;;;
2022/08/18 02:41:58;;;;;;;5.2;4;;;;;;;19.69;77.72266;934.6108;;;;
2022/08/18 02:44:36;;;;;;;5.3;4.1;;;;;;;19.58;78.29492;934.4769;;;;
2022/08/18 02:47:03;;;;;;;4.5;4;;;;;;;19.46;78.75293;934.6247;;;;
2022/08/18 02:49:28;;;;;;;4.6;4.2;;;;;;;19.4;79.52246;934.5003;;;;
2022/08/18 02:51:53;;;;;;;4.6;3.7;;;;;;;19.32;79.7998;934.4664;;;;
2022/08/18 02:54:21;;;;;;;4.4;4;;;;;;;19.36;79.65625;934.5145;;;;
2022/08/18 02:56:46;;;;;;;5.2;4.2;;;;;;;19.39;79.5791;934.4773;;;;
2022/08/18 02:59:11;;;;;;;4.5;4.1;;;;;;;19.36;79.29297;934.584;;;;
2022/08/18 03:01:38;;;;;;;5.6;3.8;;;;;;;19.29;79.46875;934.6311;;;;
2022/08/18 03:04:45;;;;;;;6;4.5;;;;;;;19.27;79.69824;934.4664;;;;
2022/08/18 03:07:10;;;;;;;5.4;4;;;;;;;19.23;79.98145;934.1962;;;;
2022/08/18 03:09:36;;;;;;;5.6;4.3;;;;;;;19.25;79.58789;934.1716;;;;
2022/08/18 03:12:01;;;;;;;5.4;4.4;;;;;;;19.2;79.78809;934.0589;;;;
2022/08/18 03:14:27;;;;;;;5.4;3.7;;;;;;;19.21;79.52344;933.9852;;;;
2022/08/18 03:17:00;;;;;;;4.7;4.2;;;;;;;19.26;79.46387;934.0306;;;;
2022/08/18 03:22:26;;;;;;;4.5;4.1;;;;;;;19.03;80.23633;934.3102;;;;
2022/08/18 03:24:54;;;;;;;4.9;4.3;;;;;;;19.03;80.39941;934.2261;;;;
2022/08/18 03:27:19;;;;;;;5.2;4.2;;;;;;;19.05;80.38867;934.2911;;;;
2022/08/18 03:29:49;;;;;;;5;4.5;;;;;;;19.04;80.45898;934.2097;;;;
2022/08/18 03:32:13;;;;;;;6;4.4;;;;;;;19.02;80.25586;934.1326;;;;
2022/08/18 03:34:39;;;;;;;5.4;4.5;;;;;;;19;80.4873;934.0531;;;;
2022/08/18 03:37:04;;;;;;;5.7;5.2;;;;;;;19.01;80.40723;934.0602;;;;
2022/08/18 03:39:29;;;;;;;5.2;4.7;;;;;;;19.01;80.34961;934.1395;;;;
2022/08/18 03:41:56;;;;;;;5.6;4.7;;;;;;;19.03;80.3291;934.1617;;;;
2022/08/18 03:44:22;;;;;;;6.6;4.9;;;;;;;18.98;79.82031;934.1635;;;;
2022/08/18 03:50:18;;;;;;;4.8;4.3;;;;;;;18.77;80.7334;933.9647;;;;
2022/08/18 03:52:47;;;;;;;4.8;4.4;;;;;;;18.74;80.82324;933.8903;;;;
2022/08/18 03:55:08;;;;;;;6.7;4.8;;;;;;;18.61;81.41504;933.8435;;;;
2022/08/18 03:57:36;;;;;;;7;5;;;;;;;18.6;80.76172;933.8359;;;;
2022/08/18 04:00:26;;;;;;;7.2;4.7;;;;;;;18.45;80.86328;933.7658;;;;
2022/08/18 04:02:59;;;;;;;5.1;4.6;;;;;;;18.55;80.91797;933.7081;;;;
2022/08/18 04:05:23;;;;;;;5.2;4.6;;;;;;;18.53;81.4248;933.6934;;;;
2022/08/18 04:10:15;;;;;;;6.8;5.2;;;;;;;18.53;81.55273;933.7378;;;;
2022/08/18 04:12:42;;;;;;;6.3;4.5;;;;;;;18.51;81.71191;933.8237;;;;
2022/08/18 04:15:08;;;;;;;7.2;4.9;;;;;;;18.46;81.87695;933.7009;;;;
2022/08/18 04:17:38;;;;;;;5.9;5.3;;;;;;;18.47;82.03125;933.6088;;;;
2022/08/18 04:20:05;;;;;;;7.9;5.1;;;;;;;18.45;82.17676;933.5464;;;;
2022/08/18 04:22:32;;;;;;;5.4;4.9;;;;;;;18.4;82.4707;933.5355;;;;
2022/08/18 04:24:59;;;;;;;6.5;4.8;;;;;;;18.34;83.09863;933.5945;;;;
2022/08/18 04:27:25;;;;;;;7.7;5.1;;;;;;;18.27;83.24609;933.6369;;;;
2022/08/18 04:29:55;;;;;;;5;4.4;;;;;;;18.35;83.03027;933.6861;;;;
2022/08/18 04:32:18;;;;;;;5.5;4.6;;;;;;;18.47;82.72656;933.7676;;;;
2022/08/18 04:34:47;;;;;;;7.3;4.6;;;;;;;18.57;82.59277;933.9448;;;;
2022/08/18 04:37:14;;;;;;;6.1;4.3;;;;;;;18.73;81.49609;933.9392;;;;
2022/08/18 04:39:42;;;;;;;5.4;4.4;;;;;;;18.76;81.59473;933.8617;;;;
2022/08/18 04:42:07;;;;;;;5.2;4.7;;;;;;;18.77;81.43457;933.8298;;;;
2022/08/18 04:45:20;;;;;;;5.7;4.6;;;;;;;18.73;81.07617;933.8223;;;;
2022/08/18 04:47:30;;;;;;;5.4;4.8;;;;;;;18.69;81.7793;933.7853;;;;
2022/08/18 04:49:55;;;;;;;6;4.5;;;;;;;18.56;82;933.7885;;;;
2022/08/18 04:54:50;;;;;;;5.3;4.5;;;;;;;18.42;82.64844;934.0206;;;;
2022/08/18 04:57:20;;;;;;;6.3;4.7;;;;;;;18.09;84.20215;934.1046;;;;
2022/08/18 04:59:57;;;;;;;5.9;4.8;;;;;;;17.97;85.29297;934.0897;;;;
2022/08/18 05:02:24;;;;;;;5.2;4.7;;;;;;;18.08;84.91797;934.0389;;;;
2022/08/18 05:04:49;;;;;;;4.8;4.4;;;;;;;17.98;85.46973;934.1281;;;;
2022/08/18 05:07:18;;;;;;;5.5;4.3;;;;;;;17.75;86.77051;934.0781;;;;
2022/08/18 05:09:46;;;;;;;6;4.4;;;;;;;17.84;86.97363;934.0368;;;;
2022/08/18 05:12:12;;;;;;;6;4.8;;;;;;;18;86.46973;933.961;;;;
2022/08/18 05:14:38;;;;;;;6.4;4.4;;;;;;;18.09;85.82715;933.9363;;;;
2022/08/18 05:17:04;;;;;;;5.8;4.5;;;;;;;18.28;85.6084;933.9467;;;;
2022/08/18 05:19:30;;;;;;;5.9;4.9;;;;;;;18.32;84.7207;934.032;;;;
2022/08/18 05:21:56;;;;;;;7.6;5.1;;;;;;;18.45;84.76953;934.0666;;;;
2022/08/18 05:24:24;;;;;;;5.4;4.9;;;;;;;18.44;84.23145;934.0032;;;;
2022/08/18 05:26:48;;;;;;;7;4.6;;;;;;;18.57;83.6416;933.9995;;;;
2022/08/18 05:32:51;;;;;;;6.1;4.7;;;;;;;18.56;83.75586;934.0295;;;;
2022/08/18 05:35:21;;;;;;;5.6;4.8;;;;;;;18.65;83.54004;934.0084;;;;
2022/08/18 05:37:46;;;;;;;4.9;4.3;;;;;;;18.7;83.08496;934.0585;;;;
2022/08/18 05:40:15;;;;;;;5.6;4.6;;;;;;;18.44;83.66406;934.0159;;;;
2022/08/18 05:42:40;;;;;;;5;4.5;;;;;;;18.47;83.52734;934.0967;;;;
2022/08/18 05:45:09;;;;;;;5.1;4.4;;;;;;;18.54;83.30859;934.077;;;;
2022/08/18 05:47:41;;;;;;;5.2;4.4;;;;;;;18.68;82.87109;933.968;;;;
2022/08/18 05:50:06;;;;;;;4.5;4;;;;;;;18.8;82.5459;933.9637;;;;
2022/08/18 05:52:31;;;;;;;5.2;4;;;;;;;18.93;81.97363;934.0224;;;;
2022/08/18 05:57:26;;;;;;;4.6;4.2;;;;;;;19;81.6377;934.009;;;;
2022/08/18 06:03:26;;;;;;;5.5;4;;;;;;;19.22;80.79492;934.005;;;;
2022/08/18 06:05:53;;;;;;;6.5;5.1;;;;;;;19.18;81.10059;933.9766;;;;
2022/08/18 06:08:22;;;;;;;4.6;4;;;;;;;19.38;80.36816;933.8067;;;;
2022/08/18 06:10:47;;;;;;;4.9;4.2;;;;;;;19.53;80.02344;933.8386;;;;
2022/08/18 06:13:11;;;;;;;9.7;7.4;;;;;;;19.68;80.00488;933.9659;;;;
2022/08/18 06:15:39;;;;;;;8.8;6.7;;;;;;;19.79;78.98633;933.9688;;;;
2022/08/18 06:18:05;;;;;;;7.7;5.4;;;;;;;19.91;79.12402;933.9813;;;;
2022/08/18 06:20:31;;;;;;;6.1;4.6;;;;;;;19.97;79.71875;933.9985;;;;
2022/08/18 06:22:57;;;;;;;5.3;4.3;;;;;;;20.07;78.94336;934.0034;;;;
2022/08/18 06:25:26;;;;;;;5;4.1;;;;;;;20.1;79.54297;934.0253;;;;
2022/08/18 06:27:54;;;;;;;5.1;4.4;;;;;;;20.19;79.43262;934.0073;;;;
2022/08/18 06:30:16;;;;;;;4.8;4.4;;;;;;;20.21;79.12012;934.0044;;;;
2022/08/18 06:32:42;;;;;;;6.4;4.8;;;;;;;20.36;78.37695;934.01;;;;
2022/08/18 06:35:07;;;;;;;5;4.5;;;;;;;20.48;77.07715;934.0582;;;;
2022/08/18 06:37:33;;;;;;;6.9;5.4;;;;;;;20.56;78.03711;934.0806;;;;
2022/08/18 06:39:58;;;;;;;5.6;4.4;;;;;;;20.63;77.69922;934.0369;;;;
2022/08/18 06:42:25;;;;;;;4.6;3.8;;;;;;;20.76;76.68262;934.0135;;;;
2022/08/18 06:44:50;;;;;;;6.1;4.5;;;;;;;20.86;77.27246;934.0466;;;;
2022/08/18 06:47:16;;;;;;;5.1;3.8;;;;;;;20.92;73.51758;934.0064;;;;
2022/08/18 06:49:42;;;;;;;6.4;4.2;;;;;;;21.06;75.3291;934.0502;;;;
2022/08/18 06:52:07;;;;;;;6.4;4.7;;;;;;;21.14;76.9707;934.0267;;;;
2022/08/18 06:54:32;;;;;;;4.7;4.2;;;;;;;21.19;75.41113;934.0847;;;;
2022/08/18 06:56:57;;;;;;;6.3;5;;;;;;;21.05;77.44434;934.1314;;;;
2022/08/18 06:59:22;;;;;;;6.6;4.4;;;;;;;21.78;73.49707;934.1097;;;;
2022/08/18 07:01:47;;;;;;;6.3;4.4;;;;;;;21.94;73.57031;934.1473;;;;
2022/08/18 07:04:12;;;;;;;5.5;4.2;;;;;;;22.42;70.78711;934.1208;;;;
2022/08/18 07:06:37;;;;;;;4.6;4.1;;;;;;;22.48;69.69434;934.0844;;;;
2022/08/18 07:09:05;;;;;;;5.7;4.1;;;;;;;22.78;68.06152;934.0959;;;;
2022/08/18 07:11:31;;;;;;;5.8;4.1;;;;;;;22.6;69.30176;934.2098;;;;
2022/08/18 07:13:59;;;;;;;4.9;4.4;;;;;;;22.72;68.27637;934.3939;;;;
2022/08/18 07:16:24;;;;;;;4;3.7;;;;;;;23.25;65.26563;934.4034;;;;
2022/08/18 07:18:52;;;;;;;4.3;3.8;;;;;;;23.45;65.22461;934.3635;;;;
2022/08/18 07:21:17;;;;;;;4.1;3.5;;;;;;;24.02;62.54199;934.3191;;;;
2022/08/18 07:23:46;;;;;;;4.1;3.6;;;;;;;24.31;62.3584;934.2946;;;;
2022/08/18 07:26:11;;;;;;;4.1;3.7;;;;;;;25.16;59.04199;934.3154;;;;
2022/08/18 07:28:37;;;;;;;3.9;3.3;;;;;;;25.28;58.73926;934.3231;;;;
2022/08/18 07:31:03;;;;;;;4.8;3.8;;;;;;;25.05;59.51172;934.3376;;;;
2022/08/18 07:33:28;;;;;;;3.6;3.3;;;;;;;24.91;61.35645;934.2686;;;;
2022/08/18 07:36:02;;;;;;;4.7;3.6;;;;;;;25.35;59.12695;934.2299;;;;
2022/08/18 07:38:29;;;;;;;3.7;3.3;;;;;;;25.68;58;934.2143;;;;
2022/08/18 07:40:54;;;;;;;4.1;3.7;;;;;;;26.08;56.16016;934.1609;;;;
2022/08/18 07:43:19;;;;;;;4.8;3.5;;;;;;;25.37;59.43555;934.0316;;;;
2022/08/18 07:45:46;;;;;;;3.8;3.5;;;;;;;26.15;56.34668;934.0158;;;;
2022/08/18 07:48:16;;;;;;;3.7;3.3;;;;;;;24.86;60.8418;934.0588;;;;
2022/08/18 07:51:19;;;;;;;3.2;2.9;;;;;;;25.06;58.99316;934.0831;;;;
2022/08/18 07:53:45;;;;;;;3.4;3.1;;;;;;;24.47;61.31934;934.0817;;;;
2022/08/18 07:56:10;;;;;;;3.5;3.2;;;;;;;23.87;63.32129;934.0233;;;;
2022/08/18 07:58:35;;;;;;;3.5;3.2;;;;;;;23.54;64.5918;934.0715;;;;
2022/08/18 08:01:02;;;;;;;4;3.3;;;;;;;23.25;66.51172;934.1822;;;;
2022/08/18 08:03:27;;;;;;;3.5;3.2;;;;;;;24.03;63.8252;934.3231;;;;
2022/08/18 08:09:22;;;;;;;3.2;2.9;;;;;;;24.39;61.81641;934.323;;;;
2022/08/18 08:11:51;;;;;;;3.4;3;;;;;;;24.22;61.73242;934.3643;;;;
2022/08/18 08:15:08;;;;;;;3.3;3;;;;;;;23.89;62.60547;934.402;;;;
2022/08/18 08:17:36;;;;;;;4.7;3.3;;;;;;;24.01;62.20996;934.3027;;;;
2022/08/18 08:20:01;;;;;;;3.8;3.1;;;;;;;23.2;65.79883;934.2859;;;;
2022/08/18 08:22:30;;;;;;;4;3.6;;;;;;;23.3;65.58984;934.2166;;;;
2022/08/18 08:24:55;;;;;;;3.3;3;;;;;;;23.38;65.22559;934.177;;;;
2022/08/18 08:27:22;;;;;;;4.2;3.5;;;;;;;23.3;66.6709;934.1564;;;;
2022/08/18 08:29:47;;;;;;;3.4;3;;;;;;;23.55;66.14453;933.9256;;;;
2022/08/18 08:32:13;;;;;;;3.5;3.1;;;;;;;24.11;63.7207;933.9065;;;;
2022/08/18 08:34:38;;;;;;;3.2;2.9;;;;;;;24.07;63.66602;933.9277;;;;
2022/08/18 08:37:03;;;;;;;3.4;3.1;;;;;;;23.39;65.98047;933.8531;;;;
2022/08/18 08:39:29;;;;;;;3.6;3.2;;;;;;;23.23;67.87207;933.8144;;;;
2022/08/18 08:41:54;;;;;;;4;3.2;;;;;;;22.69;68.09473;933.7142;;;;
2022/08/18 08:44:20;;;;;;;6;3.6;;;;;;;22.36;71.69336;933.7753;;;;
2022/08/18 08:46:45;;;;;;;3.8;3.4;;;;;;;22.62;70.32715;933.8477;;;;
2022/08/18 08:49:31;;;;;;;4.5;3.2;;;;;;;23.08;68.33203;933.8696;;;;
2022/08/18 08:51:57;;;;;;;3.4;3.1;;;;;;;24.23;65.2334;934.0565;;;;
2022/08/18 08:54:22;;;;;;;3.6;3.2;;;;;;;25.27;62.5166;933.9236;;;;
2022/08/18 08:56:47;;;;;;;3.3;2.7;;;;;;;26.28;57.8418;933.8602;;;;
2022/08/18 08:59:12;;;;;;;3.4;2.8;;;;;;;28.14;52.29395;933.822;;;;
2022/08/18 09:01:37;;;;;;;3.2;2.8;;;;;;;28.24;52.81641;933.8427;;;;
2022/08/18 09:04:02;;;;;;;3.3;2.9;;;;;;;29.51;49.46289;933.7136;;;;
2022/08/18 09:07:01;;;;;;;3.5;2.8;;;;;;;29.42;48.61816;933.5781;;;;
2022/08/18 09:09:26;;;;;;;4.6;2.9;;;;;;;31.36;43.17773;933.433;;;;
2022/08/18 09:11:51;;;;;;;2.9;2.6;;;;;;;31.27;44.0791;933.4468;;;;
2022/08/18 09:14:16;;;;;;;3.1;2.8;;;;;;;31.26;43.62305;933.5025;;;;
2022/08/18 09:16:41;;;;;;;3;2.7;;;;;;;30.64;44.24512;933.5392;;;;
2022/08/18 09:19:12;;;;;;;3.4;3.1;;;;;;;29.9;46.18848;933.7736;;;;
2022/08/18 09:21:36;;;;;;;3;2.8;;;;;;;29.43;47.78516;933.7102;;;;
2022/08/18 09:24:01;;;;;;;3.5;3;;;;;;;29.39;47.82813;933.6596;;;;
2022/08/18 09:26:30;;;;;;;3.2;2.9;;;;;;;27.43;53.55273;933.6167;;;;
2022/08/18 09:28:56;;;;;;;3.5;3.2;;;;;;;28.08;51.0752;933.6694;;;;
2022/08/18 09:31:21;;;;;;;3.3;3;;;;;;;28.83;48.74512;933.6379;;;;
2022/08/18 09:33:47;;;;;;;3.1;2.8;;;;;;;28.9;48.66895;933.5084;;;;
2022/08/18 09:36:45;;;;;;;3;2.8;;;;;;;28.84;49.0918;933.4687;;;;
2022/08/18 09:41:44;;;;;;;4;3.2;;;;;;;27.48;52.60938;933.4531;;;;
2022/08/18 09:44:13;;;;;;;3.3;3;;;;;;;28.16;51.54785;933.5864;;;;
2022/08/18 09:46:52;;;;;;;3.4;2.9;;;;;;;28.55;50.11816;933.5732;;;;
2022/08/18 09:49:18;;;;;;;4.9;2.9;;;;;;;28.42;50.7207;933.5491;;;;
2022/08/18 09:51:45;;;;;;;4.6;3.4;;;;;;;28.01;51.54199;933.5861;;;;
2022/08/18 09:54:12;;;;;;;3.8;3.3;;;;;;;27.61;52.38672;933.6495;;;;
2022/08/18 09:56:36;;;;;;;3.3;3.1;;;;;;;28.41;49.76953;933.6536;;;;
2022/08/18 09:59:03;;;;;;;3.7;3.4;;;;;;;27.36;53.78125;933.7086;;;;
2022/08/18 10:01:30;;;;;;;4;3.2;;;;;;;27.67;52.20313;933.7512;;;;
2022/08/18 10:03:56;;;;;;;3.8;3.4;;;;;;;27.66;53.10449;933.7084;;;;
2022/08/18 10:06:20;;;;;;;3.4;3.1;;;;;;;27.56;53.29395;933.5867;;;;
2022/08/18 10:08:46;;;;;;;4.1;3.6;;;;;;;27.94;51.81934;933.5639;;;;
2022/08/18 10:11:10;;;;;;;3.5;3.2;;;;;;;27.44;53.23438;933.55;;;;
2022/08/18 10:13:37;;;;;;;4.7;3.2;;;;;;;27.33;53.54004;933.4888;;;;
2022/08/18 10:16:04;;;;;;;4.2;3.4;;;;;;;26.98;56.11914;933.3689;;;;
2022/08/18 10:18:30;;;;;;;3.4;3.1;;;;;;;26.51;56.41406;933.3328;;;;
2022/08/18 10:20:55;;;;;;;3.4;3.1;;;;;;;26.33;57.10156;933.4653;;;;
2022/08/18 10:23:24;;;;;;;29.2;15.2;;;;;;;26.23;58.91211;933.5053;;;;
2022/08/18 10:25:51;;;;;;;6.3;4.9;;;;;;;25.4;61.10449;933.4087;;;;
2022/08/18 10:28:14;;;;;;;7.3;6;;;;;;;26.07;59.13965;933.3924;;;;
2022/08/18 10:30:40;;;;;;;5.9;4.4;;;;;;;27.14;56.375;933.3165;;;;
2022/08/18 10:33:08;;;;;;;9.3;5.3;;;;;;;27.71;54.82031;933.2823;;;;
2022/08/18 10:35:33;;;;;;;6.9;5;;;;;;;28.32;50.99609;933.1903;;;;
2022/08/18 10:37:58;;;;;;;5.1;4;;;;;;;28.21;50.66309;933.267;;;;
2022/08/18 10:41:45;;;;;;;5.5;4.4;;;;;;;27.76;51.81152;933.2606;;;;
2022/08/18 10:44:13;;;;;;;5;3.9;;;;;;;27.33;52.72168;933.0252;;;;
2022/08/18 10:46:38;;;;;;;8.4;4.7;;;;;;;26.22;58.88574;932.8425;;;;
2022/08/18 10:49:05;;;;;;;7.5;5.5;;;;;;;26.55;56.3252;932.709;;;;
2022/08/18 10:51:28;;;;;;;6.7;4.8;;;;;;;26.61;57.5166;932.6262;;;;
2022/08/18 10:53:53;;;;;;;7;4.7;;;;;;;26.73;54.51172;932.5209;;;;
2022/08/18 10:56:19;;;;;;;4.3;3.6;;;;;;;26.67;55.99805;932.4793;;;;
2022/08/18 10:58:44;;;;;;;4.3;3.8;;;;;;;27.28;53.07227;932.4575;;;;
2022/08/18 11:01:09;;;;;;;4;3.6;;;;;;;27.19;53.8916;932.5161;;;;
2022/08/18 11:04:07;;;;;;;4.9;3.7;;;;;;;26.47;55.10742;932.4044;;;;
2022/08/18 11:06:33;;;;;;;4.9;3.7;;;;;;;27.04;54.47754;932.2079;;;;
2022/08/18 11:08:58;;;;;;;5.8;4.2;;;;;;;27.19;54.3418;932.1315;;;;
2022/08/18 11:11:23;;;;;;;4.1;3.7;;;;;;;27.27;53.91211;932.2145;;;;
2022/08/18 11:13:48;;;;;;;4.1;3.7;;;;;;;26.88;55.1582;932.3187;;;;
2022/08/18 11:16:15;;;;;;;4.1;3.7;;;;;;;26.92;55.65918;932.3384;;;;
2022/08/18 11:18:40;;;;;;;6;4.1;;;;;;;26.08;56.9873;932.0228;;;;
2022/08/18 11:21:06;;;;;;;5.9;4.1;;;;;;;26.23;56.92285;931.78;;;;
2022/08/18 11:23:31;;;;;;;5.6;4;;;;;;;26.01;57.49902;931.6394;;;;
2022/08/18 11:26:01;;;;;;;4.7;3.9;;;;;;;26.21;58.60059;931.7271;;;;
2022/08/18 11:28:26;;;;;;;4.5;3.8;;;;;;;25.96;57.9541;931.8521;;;;
2022/08/18 11:30:51;;;;;;;13;3.9;;;;;;;25.38;59.99316;932.1273;;;;
2022/08/18 11:33:16;;;;;;;4.3;3.5;;;;;;;24.9;61.99219;932.2444;;;;
2022/08/18 11:35:43;;;;;;;4.1;3.7;;;;;;;24.37;63.83887;932.347;;;;
2022/08/18 11:38:08;;;;;;;4.1;3.7;;;;;;;24.82;61.98145;932.1692;;;;
2022/08/18 11:40:38;;;;;;;3.8;3.4;;;;;;;25.16;61.04883;932.0914;;;;
2022/08/18 11:43:10;;;;;;;4.6;3.6;;;;;;;25.17;60.61328;932.0041;;;;
2022/08/18 11:45:35;;;;;;;4.1;3.5;;;;;;;25.73;58.83398;932.0174;;;;
2022/08/18 11:48:04;;;;;;;5.1;3.5;;;;;;;26.04;57.34863;932.1121;;;;
2022/08/18 11:50:30;;;;;;;4.3;3.7;;;;;;;26.03;57.47754;932.0579;;;;
2022/08/18 11:52:55;;;;;;;4.8;3.6;;;;;;;25.92;57.75879;932.0228;;;;
2022/08/18 11:55:21;;;;;;;6.1;3.5;;;;;;;26.05;56.87695;931.95;;;;
2022/08/18 11:57:46;;;;;;;4.4;4;;;;;;;25.74;59.11914;931.884;;;;
2022/08/18 12:00:15;;;;;;;4.2;3.5;;;;;;;26.12;57.37109;931.8633;;;;
2022/08/18 12:02:40;;;;;;;4.1;3.3;;;;;;;26.23;56.86523;931.7389;;;;
2022/08/18 12:05:10;;;;;;;4;3.6;;;;;;;26.3;57.24023;931.6238;;;;
2022/08/18 12:07:44;;;;;;;4;3.6;;;;;;;26.03;58.16211;931.8375;;;;
2022/08/18 12:10:13;;;;;;;4.2;3.4;;;;;;;26;57.29688;932.0258;;;;
2022/08/18 12:12:41;;;;;;;4.2;3.6;;;;;;;25.8;58.7832;932.0386;;;;
2022/08/18 12:15:07;;;;;;;4.2;3.8;;;;;;;25.61;58.80664;931.9278;;;;
2022/08/18 12:17:32;;;;;;;4.5;3.6;;;;;;;25.99;57.56738;931.9125;;;;
2022/08/18 12:19:58;;;;;;;4.5;3.4;;;;;;;25.48;60.50195;932.0422;;;;
2022/08/18 12:22:22;;;;;;;3.8;3.2;;;;;;;25.72;59.10352;932.1838;;;;
2022/08/18 12:24:51;;;;;;;5.9;3.7;;;;;;;25.47;60.79688;932.035;;;;
2022/08/18 12:27:16;;;;;;;4.3;3.4;;;;;;;25.61;59.17285;931.9275;;;;
2022/08/18 12:29:42;;;;;;;6.5;3.9;;;;;;;25.46;59.10547;931.9504;;;;
2022/08/18 12:32:07;;;;;;;4;3.6;;;;;;;25.52;58.74609;932.0186;;;;
2022/08/18 12:34:35;;;;;;;5.1;3.9;;;;;;;25.52;59.64551;932.077;;;;
2022/08/18 12:37:09;;;;;;;4.4;3.6;;;;;;;25.17;61.5459;931.9715;;;;
2022/08/18 12:39:35;;;;;;;6.2;4.1;;;;;;;25.02;61.91406;931.9838;;;;
2022/08/18 12:42:06;;;;;;;4.2;3.6;;;;;;;25.02;61.6084;931.8897;;;;
2022/08/18 12:44:31;;;;;;;4.1;3.7;;;;;;;25.16;60.5166;931.7814;;;;
2022/08/18 12:46:58;;;;;;;4.2;3.8;;;;;;;24.9;62.00391;931.8688;;;;
2022/08/18 12:49:23;;;;;;;5;3.7;;;;;;;24.79;62.35449;931.825;;;;
2022/08/18 12:51:53;;;;;;;5.5;4.1;;;;;;;24.86;62.31641;931.832;;;;
2022/08/18 12:54:17;;;;;;;4.4;4;;;;;;;24.69;62.0459;931.7703;;;;
2022/08/18 12:56:43;;;;;;;4;3.5;;;;;;;24.13;64.93652;931.6984;;;;
2022/08/18 12:59:08;;;;;;;4.9;4.3;;;;;;;24.17;64.50391;931.6958;;;;
2022/08/18 13:01:38;;;;;;;4.9;4.3;;;;;;;24.09;64.74121;931.6567;;;;
2022/08/18 13:04:07;;;;;;;4.5;4.1;;;;;;;24.1;64.53027;931.6239;;;;
2022/08/18 13:06:32;;;;;;;4.5;4.1;;;;;;;24.11;65.00391;931.5294;;;;
2022/08/18 13:08:57;;;;;;;5.1;4.1;;;;;;;24.07;64.9502;931.4673;;;;
2022/08/18 13:11:27;;;;;;;4.2;3.8;;;;;;;24.05;64.72559;931.3959;;;;
2022/08/18 13:13:55;;;;;;;4.5;4;;;;;;;24.22;63.33398;931.2333;;;;
2022/08/18 13:16:22;;;;;;;4.4;3.9;;;;;;;24.21;63.9707;931.0545;;;;
2022/08/18 13:18:47;;;;;;;4.5;4.1;;;;;;;24.2;64.82715;931.0189;;;;
2022/08/18 13:21:13;;;;;;;4.3;3.9;;;;;;;24.12;65.02734;930.976;;;;
2022/08/18 13:23:39;;;;;;;5.4;4;;;;;;;24.02;65.34277;930.9023;;;;
2022/08/18 13:26:05;;;;;;;4.2;3.8;;;;;;;23.9;65.76074;930.8072;;;;
2022/08/18 13:28:30;;;;;;;4.5;3.8;;;;;;;23.86;65.63672;930.7026;;;;
2022/08/18 13:30:58;;;;;;;4.6;3.7;;;;;;;23.91;66.00977;930.7578;;;;
2022/08/18 13:33:23;;;;;;;6.2;4.3;;;;;;;23.95;65.25098;930.8019;;;;
2022/08/18 13:35:50;;;;;;;4.1;3.7;;;;;;;24.04;65.13477;930.8345;;;;
2022/08/18 13:38:19;;;;;;;4.5;4.1;;;;;;;24;65.08301;930.8826;;;;
2022/08/18 13:40:41;;;;;;;4.4;3.9;;;;;;;24.07;64.50391;930.9394;;;;
2022/08/18 13:43:09;;;;;;;4.9;4.4;;;;;;;23.86;66.41406;931.0865;;;;
2022/08/18 13:45:35;;;;;;;4.4;3.8;;;;;;;23.49;68.57031;931.1797;;;;
2022/08/18 13:48:04;;;;;;;6.4;4.2;;;;;;;23.47;68.33301;931.2571;;;;
2022/08/18 13:50:28;;;;;;;5;4.4;;;;;;;23.42;68.55957;931.2206;;;;
2022/08/18 13:52:53;;;;;;;5.4;4.2;;;;;;;23.36;69.85449;931.2674;;;;
2022/08/18 13:55:27;;;;;;;6.1;4.7;;;;;;;23.63;67.9209;931.3285;;;;
2022/08/18 13:57:49;;;;;;;6.3;4.9;;;;;;;23.31;69.81348;931.4306;;;;
2022/08/18 14:00:14;;;;;;;4.9;4.4;;;;;;;23.27;69.21777;931.4192;;;;
2022/08/18 14:02:43;;;;;;;8;4;;;;;;;23.52;68.5293;931.3471;;;;
2022/08/18 14:05:12;;;;;;;6.6;4.9;;;;;;;23.52;68.9043;931.387;;;;
2022/08/18 14:07:37;;;;;;;5.1;4.6;;;;;;;23.56;69.29785;931.3478;;;;
2022/08/18 14:10:03;;;;;;;4.5;4.1;;;;;;;23.62;67.79004;931.3035;;;;
2022/08/18 14:12:28;;;;;;;4.4;4;;;;;;;23.44;68.31543;931.2346;;;;
2022/08/18 14:14:55;;;;;;;5.9;4.1;;;;;;;23.59;68.70313;931.1545;;;;
2022/08/18 14:17:29;;;;;;;4.8;4.3;;;;;;;23.63;68.90918;931.2592;;;;
2022/08/18 14:27:12;;;;;;;5.5;4.6;;;;;;;23.29;72.9834;931.4764;;;;
2022/08/18 14:29:37;;;;;;;7.8;4.8;;;;;;;23.1;74.40723;931.4517;;;;
2022/08/18 14:32:05;;;;;;;5.3;4.7;;;;;;;22.5;77.52441;931.52;;;;
2022/08/18 14:34:33;;;;;;;6.8;5.4;;;;;;;22.49;79.46777;931.4875;;;;
2022/08/18 14:36:58;;;;;;;5.7;5.1;;;;;;;22.5;79.84668;931.5047;;;;
2022/08/18 14:39:27;;;;;;;7.5;5.2;;;;;;;22.59;79.46387;931.4551;;;;
2022/08/18 14:41:57;;;;;;;6.6;5;;;;;;;22.52;80.8252;931.4875;;;;
2022/08/18 14:44:21;;;;;;;7;5.4;;;;;;;22.69;80.29102;931.488;;;;
2022/08/18 14:46:51;;;;;;;5.7;4.9;;;;;;;22.79;79.94531;931.4635;;;;
2022/08/18 14:49:17;;;;;;;8;5.7;;;;;;;22.81;80.29004;931.5463;;;;
2022/08/18 14:51:43;;;;;;;7.3;5.8;;;;;;;22.79;80.15625;931.5797;;;;
2022/08/18 14:54:09;;;;;;;8;5.5;;;;;;;22.83;80.46973;931.5522;;;;
2022/08/18 14:56:37;;;;;;;7.3;6;;;;;;;22.8;81.79199;931.5887;;;;
2022/08/18 14:59:04;;;;;;;6.5;5.5;;;;;;;22.64;83.9668;931.6033;;;;
2022/08/18 15:01:33;;;;;;;5.6;5.1;;;;;;;22.36;84.70117;931.5686;;;;
2022/08/18 15:03:57;;;;;;;7.2;5.7;;;;;;;22.39;85.58789;931.6052;;;;
2022/08/18 15:06:24;;;;;;;7.7;5.5;;;;;;;22.46;85.36621;931.6209;;;;
2022/08/18 15:08:49;;;;;;;6.6;5.9;;;;;;;;;;;;;
2022/08/18 15:11:15;;;;;;;7.2;5.4;;;;;;;;;;;;;
2022/08/18 15:13:40;;;;;;;7.2;5.5;;;;;;;;;;;;;
2022/08/18 15:16:10;;;;;;;7.9;6.1;;;;;;;;;;;;;
2022/08/18 15:18:32;;;;;;;7.5;5.2;;;;;;;;;;;;;
2022/08/18 15:25:47;;;;;;;6.5;5.6;;;;;;;;;;;;;